Time;durP1;ratioP1;P1;durP2;ratioP2;P2;SDS_P1;SDS_P2;PMS_P1;PMS_P2;Temp;Humidity;BMP_temperature;BMP_pressure;BME280_temperature;BME280_humidity;BME280_pressure;Samples;Min_cycle;Max_cycle;Signal;HPM_P1;HPM_P2
2023/12/30 00:00:59;;;;;;;6.43;2.65;;;;;;;2.69;100.00;97558.41;5087640;28;20492;-63
2023/12/30 00:03:25;;;;;;;4.20;2.47;;;;;;;2.77;100.00;97541.03;5073039;28;20036;-62
2023/12/30 00:05:52;;;;;;;4.57;2.70;;;;;;;2.63;100.00;97537.28;5071829;28;20036;-62
2023/12/30 00:08:18;;;;;;;5.45;2.65;;;;;;;2.75;100.00;97547.09;5089722;28;20036;-65
2023/12/30 00:10:45;;;;;;;4.72;1.75;;;;;;;2.75;100.00;97532.53;5089904;28;20415;-64
2023/12/30 00:13:14;;;;;;;4.10;1.88;;;;;;;2.69;100.00;97540.47;5090442;28;20119;-63
2023/12/30 00:15:43;;;;;;;2.67;1.95;;;;;;;2.65;100.00;97538.91;5074070;28;20044;-64
2023/12/30 00:18:09;;;;;;;3.15;1.50;;;;;;;2.64;100.00;97537.22;5061640;28;20538;-64
2023/12/30 00:20:36;;;;;;;4.70;2.08;;;;;;;2.62;100.00;97522.81;5085612;28;20066;-64
2023/12/30 00:23:02;;;;;;;5.68;3.03;;;;;;;2.37;100.00;97482.66;5090073;28;20047;-62
2023/12/30 00:25:28;;;;;;;3.10;1.58;;;;;;;2.61;100.00;97521.97;5089841;28;20043;-65
2023/12/30 00:27:55;;;;;;;4.68;2.15;;;;;;;2.53;100.00;97517.09;5078712;28;20040;-63
2023/12/30 00:30:22;;;;;;;5.65;3.05;;;;;;;2.52;100.00;97515.44;5077876;28;20047;-62
2023/12/30 00:32:52;;;;;;;5.35;2.88;;;;;;;2.51;100.00;97513.75;5085328;28;20040;-63
2023/12/30 00:35:18;;;;;;;4.13;2.20;;;;;;;2.50;100.00;97508.69;5076728;28;20075;-61
2023/12/30 00:37:44;;;;;;;3.60;2.17;;;;;;;2.52;100.00;97512.03;5078654;28;20039;-65
2023/12/30 00:40:12;;;;;;;3.70;1.38;;;;;;;2.26;100.00;97482.22;5080252;28;20109;-63
2023/12/30 00:42:39;;;;;;;4.93;2.17;;;;;;;2.41;100.00;97507.28;5071492;28;20048;-62
2023/12/30 00:45:06;;;;;;;2.70;1.73;;;;;;;2.42;100.00;97518.38;5086648;28;20503;-64
2023/12/30 00:47:36;;;;;;;1.95;1.10;;;;;;;2.31;100.00;97495.69;5086932;28;20074;-60
2023/12/30 00:50:02;;;;;;;5.05;2.42;;;;;;;2.35;100.00;97504.13;5071854;28;20044;-64
2023/12/30 00:52:30;;;;;;;2.58;1.65;;;;;;;2.30;100.00;97500.91;5050351;28;20056;-62
2023/12/30 00:54:56;;;;;;;2.25;1.30;;;;;;;2.03;100.00;97454.03;5082784;28;20044;-62
2023/12/30 00:57:22;;;;;;;3.67;1.58;;;;;;;2.18;100.00;97476.56;5085235;28;20044;-62
2023/12/30 00:59:49;;;;;;;5.72;2.50;;;;;;;2.19;100.00;97488.47;5084717;28;20048;-62
2023/12/30 01:02:15;;;;;;;3.13;1.52;;;;;;;2.16;100.00;97490.28;5087902;28;20350;-62
2023/12/30 01:04:41;;;;;;;3.28;1.45;;;;;;;2.12;100.00;97492.16;5069147;28;20577;-62
2023/12/30 01:07:11;;;;;;;2.03;1.30;;;;;;;2.06;100.00;97494.91;5083653;28;20040;-63
2023/12/30 01:09:37;;;;;;;2.17;1.27;;;;;;;2.02;100.00;97501.88;5081965;28;20035;-64
2023/12/30 01:12:04;;;;;;;4.28;1.67;;;;;;;2.00;100.00;97480.59;5078018;28;20526;-64
2023/12/30 01:14:34;;;;;;;3.03;1.25;;;;;;;2.01;100.00;97482.28;5085221;28;20040;-65
2023/12/30 01:17:00;;;;;;;2.97;1.35;;;;;;;1.98;100.00;97474.72;5082138;28;20098;-62
2023/12/30 01:19:30;;;;;;;4.95;2.20;;;;;;;1.96;100.00;97478.19;5083431;28;20048;-63
2023/12/30 01:21:56;;;;;;;0.98;0.77;;;;;;;2.01;100.00;97473.75;5068848;28;20063;-56
2023/12/30 01:24:23;;;;;;;2.42;1.30;;;;;;;1.75;100.00;97435.41;5071013;28;20123;-57
2023/12/30 01:26:58;;;;;;;4.15;1.48;;;;;;;1.98;100.00;97481.56;5081173;28;20123;-64
2023/12/30 01:29:28;;;;;;;3.22;1.65;;;;;;;1.91;100.00;97468.13;5084580;28;20040;-62
2023/12/30 01:31:57;;;;;;;1.15;0.77;;;;;;;1.86;100.00;97466.59;5087511;28;20039;-64
2023/12/30 01:34:23;;;;;;;2.97;1.33;;;;;;;1.82;100.00;97462.50;5069927;28;20047;-64
2023/12/30 01:36:51;;;;;;;5.28;1.33;;;;;;;1.79;100.00;97455.72;5084884;28;20066;-63
2023/12/30 01:39:17;;;;;;;3.67;1.52;;;;;;;1.78;100.00;97458.38;5067723;28;20036;-62
2023/12/30 01:41:43;;;;;;;3.22;1.75;;;;;;;1.79;100.00;97460.00;5070806;28;20044;-61
2023/12/30 01:44:10;;;;;;;4.53;1.65;;;;;;;1.80;100.00;97448.88;5085155;28;20046;-62
2023/12/30 01:46:36;;;;;;;4.90;2.20;;;;;;;1.53;100.00;97409.72;5085813;28;20474;-62
2023/12/30 01:49:03;;;;;;;5.03;1.65;;;;;;;1.81;100.00;97460.81;5065163;28;20052;-64
2023/12/30 01:51:32;;;;;;;4.70;2.03;;;;;;;1.85;100.00;97457.25;5053352;28;20117;-62
2023/12/30 01:53:59;;;;;;;2.45;0.98;;;;;;;1.83;100.00;97457.31;5101090;28;20130;-63
2023/12/30 01:56:26;;;;;;;3.78;1.52;;;;;;;1.87;100.00;97455.47;5052027;28;20155;-63
2023/12/30 01:58:53;;;;;;;5.45;2.47;;;;;;;1.62;100.00;97404.28;5069558;28;20043;-61
2023/12/30 02:01:26;;;;;;;8.95;2.35;;;;;;;1.89;100.00;97456.25;5083463;28;20036;-64
2023/12/30 02:03:53;;;;;;;3.35;1.98;;;;;;;1.91;100.00;97452.75;5084419;28;20048;-63
2023/12/30 02:06:20;;;;;;;4.28;2.08;;;;;;;1.92;100.00;97448.47;5069973;28;20055;-63
2023/12/30 02:08:47;;;;;;;3.67;1.77;;;;;;;1.71;100.00;97398.84;5082186;28;20044;-62
2023/12/30 02:11:17;;;;;;;9.10;2.53;;;;;;;1.97;100.00;97444.84;5070572;28;20067;-62
2023/12/30 02:13:44;;;;;;;6.40;2.75;;;;;;;1.99;100.00;97447.38;5076164;28;20048;-63
2023/12/30 02:16:23;;;;;;;5.65;3.00;;;;;;;2.03;100.00;97442.06;5084349;28;20044;-63
2023/12/30 02:18:52;;;;;;;;;;;;;;;2.07;100.00;97437.66;5083318;28;20047;-61
2023/12/30 02:21:22;;;;;;;5.60;2.38;;;;;;;2.10;100.00;97435.81;5082998;28;19916;-62
2023/12/30 02:23:54;;;;;;;;;;;;;;;2.11;100.00;97432.38;5068820;28;20128;-63
2023/12/30 02:26:24;;;;;;;5.65;2.45;;;;;;;2.14;100.00;97428.88;5080420;28;19920;-62
2023/12/30 02:28:50;;;;;;;5.55;2.95;;;;;;;1.97;100.00;97387.66;5067731;28;20100;-63
2023/12/30 02:31:17;;;;;;;6.18;2.88;;;;;;;2.28;100.00;97426.63;5069428;28;20504;-60
2023/12/30 02:33:43;;;;;;;2.75;1.77;;;;;;;2.29;100.00;97424.91;5067483;28;20044;-62
2023/12/30 02:36:09;;;;;;;4.88;2.42;;;;;;;2.29;100.00;97423.16;5085634;28;20815;-64
2023/12/30 02:38:35;;;;;;;7.00;2.58;;;;;;;2.35;100.00;97427.22;5068627;28;20044;-63
2023/12/30 02:41:02;;;;;;;2.42;1.67;;;;;;;2.10;100.00;97382.00;5083993;28;20048;-63
2023/12/30 02:43:29;;;;;;;7.03;3.28;;;;;;;2.44;100.00;97424.31;5081837;28;20043;-63
2023/12/30 02:45:55;;;;;;;2.70;1.52;;;;;;;2.23;100.00;97384.94;5082432;28;20043;-62
2023/12/30 02:48:24;;;;;;;4.85;1.75;;;;;;;2.50;100.00;97431.78;5086670;28;20044;-62
2023/12/30 02:50:51;;;;;;;4.78;1.80;;;;;;;2.28;100.00;97390.72;5086067;28;20065;-62
2023/12/30 02:53:20;;;;;;;2.75;1.50;;;;;;;2.49;100.00;97428.38;5075865;28;20450;-62
2023/12/30 02:55:49;;;;;;;5.03;2.92;;;;;;;2.53;100.00;97418.81;5070760;28;20073;-62
2023/12/30 02:58:16;;;;;;;4.75;2.58;;;;;;;2.38;100.00;97394.63;5067212;28;20048;-64
2023/12/30 03:00:42;;;;;;;2.75;1.50;;;;;;;2.29;100.00;97396.69;5071067;28;20143;-63
2023/12/30 03:03:09;;;;;;;6.03;2.72;;;;;;;2.13;100.00;97351.16;5075144;28;20142;-63
2023/12/30 03:05:35;;;;;;;2.83;1.67;;;;;;;2.60;100.00;97429.69;5073583;28;20052;-63
2023/12/30 03:08:03;;;;;;;2.83;1.70;;;;;;;2.17;100.00;97356.16;5069749;28;20046;-63
2023/12/30 03:10:29;;;;;;;2.78;1.25;;;;;;;2.44;100.00;97425.16;5078934;28;20055;-62
2023/12/30 03:12:58;;;;;;;2.67;1.67;;;;;;;2.30;100.00;97395.81;5037847;28;20044;-65
2023/12/30 03:15:24;;;;;;;4.40;2.22;;;;;;;2.58;100.00;97434.88;5062718;28;20159;-64
2023/12/30 03:17:54;;;;;;;;;;;;;;;2.61;100.00;97434.75;5072386;28;20075;-64
2023/12/30 03:20:20;;;;;;;8.82;1.70;;;;;;;2.37;100.00;97399.78;5073040;28;20490;-64
2023/12/30 03:22:46;;;;;;;3.97;1.30;;;;;;;2.59;100.00;97441.66;5071274;28;20086;-64
2023/12/30 03:25:11;;;;;;;4.78;1.90;;;;;;;2.65;100.00;97443.16;5072119;28;20044;-63
2023/12/30 03:27:37;;;;;;;3.75;1.80;;;;;;;2.64;100.00;97451.75;5072554;28;20032;-63
2023/12/30 03:30:04;;;;;;;4.47;1.52;;;;;;;2.59;100.00;97446.81;5069496;28;20051;-63
2023/12/30 03:32:31;;;;;;;1.10;0.88;;;;;;;2.60;100.00;97445.06;5074859;28;20130;-62
2023/12/30 03:34:57;;;;;;;1.85;0.98;;;;;;;2.59;100.00;97451.09;5062306;28;20568;-63
2023/12/30 03:37:23;;;;;;;2.70;1.63;;;;;;;2.62;100.00;97451.81;5072571;28;20051;-62
2023/12/30 03:39:49;;;;;;;4.82;2.05;;;;;;;2.64;100.00;97452.59;5072088;28;20123;-64
2023/12/30 03:42:15;;;;;;;2.55;1.13;;;;;;;2.48;100.00;97436.94;5068278;28;20423;-64
2023/12/30 03:44:41;;;;;;;2.25;1.45;;;;;;;2.64;100.00;97462.84;5077065;28;20041;-63
2023/12/30 03:47:07;;;;;;;3.15;1.60;;;;;;;2.64;100.00;97456.88;5087506;28;20052;-62
2023/12/30 03:49:33;;;;;;;2.45;1.30;;;;;;;2.57;100.00;97458.84;5081652;28;20070;-64
2023/12/30 03:51:59;;;;;;;4.32;1.70;;;;;;;2.59;100.00;97457.06;5066169;28;20044;-62
2023/12/30 03:54:25;;;;;;;2.47;1.63;;;;;;;2.66;100.00;97460.22;5075658;28;20121;-63
2023/12/30 03:56:51;;;;;;;2.10;1.45;;;;;;;2.67;100.00;97461.91;5051991;28;20044;-64
2023/12/30 03:59:18;;;;;;;2.20;1.10;;;;;;;2.67;100.00;97467.84;5067411;28;20043;-63
2023/12/30 04:01:43;;;;;;;1.98;1.17;;;;;;;2.71;100.00;97477.13;5080257;28;20150;-64
2023/12/30 04:04:09;;;;;;;1.27;0.80;;;;;;;2.70;100.00;97479.72;5071546;28;20040;-62
2023/12/30 04:06:35;;;;;;;1.33;0.95;;;;;;;2.69;100.00;97476.34;5069775;28;20506;-62
2023/12/30 04:09:01;;;;;;;1.10;0.68;;;;;;;2.43;100.00;97450.84;5072569;28;20052;-64
2023/12/30 04:11:27;;;;;;;1.60;0.80;;;;;;;2.58;100.00;97468.19;5079063;28;20066;-64
2023/12/30 04:13:53;;;;;;;1.13;0.93;;;;;;;2.67;100.00;97496.06;5083284;28;20044;-65
2023/12/30 04:16:19;;;;;;;1.02;0.57;;;;;;;2.70;100.00;97490.00;5072749;28;20033;-64
2023/12/30 04:18:46;;;;;;;5.13;0.68;;;;;;;2.55;100.00;97465.78;5071892;28;20472;-63
2023/12/30 04:21:12;;;;;;;0.77;0.60;;;;;;;2.78;100.00;97493.94;5078999;28;20039;-63
2023/12/30 04:23:37;;;;;;;2.20;0.57;;;;;;;2.80;100.00;97507.53;5072525;28;20048;-62
2023/12/30 04:26:03;;;;;;;1.10;0.57;;;;;;;2.76;100.00;97494.91;5069527;28;20048;-62
2023/12/30 04:28:30;;;;;;;0.93;0.50;;;;;;;2.85;100.00;97500.50;5082221;28;20134;-63
2023/12/30 04:30:56;;;;;;;1.13;0.40;;;;;;;2.78;100.00;97511.88;5054085;28;20409;-62
2023/12/30 04:33:21;;;;;;;1.13;0.50;;;;;;;2.76;100.00;97515.41;5085013;28;20044;-63
2023/12/30 04:35:47;;;;;;;2.30;0.85;;;;;;;2.80;100.00;97514.41;5088883;28;20049;-63
2023/12/30 04:38:15;;;;;;;1.20;0.47;;;;;;;2.78;100.00;97519.59;5089470;28;20052;-65
2023/12/30 04:40:41;;;;;;;0.80;0.40;;;;;;;2.76;100.00;97520.56;5088543;28;20158;-63
2023/12/30 04:43:07;;;;;;;1.88;0.55;;;;;;;2.65;100.00;97527.81;5100832;28;20134;-63
2023/12/30 04:45:33;;;;;;;0.75;0.50;;;;;;;2.50;100.00;97526.66;5053925;28;20032;-63
2023/12/30 04:47:58;;;;;;;0.75;0.50;;;;;;;2.55;100.00;97535.00;5083869;28;20044;-64
2023/12/30 04:50:25;;;;;;;1.00;0.70;;;;;;;2.58;100.00;97534.03;5084406;28;20210;-63
2023/12/30 04:52:51;;;;;;;1.10;0.68;;;;;;;2.31;100.00;97493.13;5089170;28;20043;-63
2023/12/30 04:55:17;;;;;;;2.08;1.00;;;;;;;2.51;100.00;97541.16;5085134;28;20046;-63
2023/12/30 04:57:47;;;;;;;1.33;0.70;;;;;;;2.31;100.00;97508.53;5085055;28;20040;-63
2023/12/30 05:00:16;;;;;;;1.33;0.68;;;;;;;2.45;100.00;97546.50;5053550;28;20441;-62
2023/12/30 05:02:42;;;;;;;1.98;0.57;;;;;;;2.45;100.00;97543.94;5085928;28;20062;-64
2023/12/30 05:05:08;;;;;;;1.25;0.80;;;;;;;2.30;100.00;97531.66;5084165;28;20047;-63
2023/12/30 05:07:34;;;;;;;3.03;0.80;;;;;;;2.17;100.00;97517.59;5070544;28;20158;-63
2023/12/30 05:09:59;;;;;;;4.88;1.75;;;;;;;2.43;100.00;97550.84;5087401;28;20123;-63
2023/12/30 05:12:26;;;;;;;2.63;0.85;;;;;;;2.44;100.00;97560.19;5087085;28;20051;-62
2023/12/30 05:14:51;;;;;;;1.10;0.60;;;;;;;2.38;100.00;97558.69;5085947;28;20036;-62
2023/12/30 05:17:17;;;;;;;1.75;0.60;;;;;;;2.35;100.00;97566.50;5068966;28;20044;-62
2023/12/30 05:19:43;;;;;;;1.70;0.45;;;;;;;2.34;100.00;97580.22;5067811;28;20039;-63
2023/12/30 05:22:09;;;;;;;1.70;0.60;;;;;;;2.38;100.00;97579.19;5068972;28;20040;-63
2023/12/30 05:24:36;;;;;;;1.70;1.10;;;;;;;2.01;100.00;97528.41;5087826;28;20055;-64
2023/12/30 05:27:02;;;;;;;1.35;0.85;;;;;;;2.40;100.00;97589.41;5084961;28;20069;-63
2023/12/30 05:29:29;;;;;;;1.67;0.93;;;;;;;2.40;100.00;97594.53;5086535;28;20159;-62
2023/12/30 05:31:55;;;;;;;1.67;0.95;;;;;;;2.39;100.00;97592.88;5083439;28;20131;-63
2023/12/30 05:34:21;;;;;;;1.10;0.90;;;;;;;2.51;100.00;97592.44;5081323;28;20048;-64
2023/12/30 05:36:47;;;;;;;1.63;0.82;;;;;;;2.55;100.00;97592.28;5086528;28;20503;-62
2023/12/30 05:39:14;;;;;;;1.52;0.80;;;;;;;2.61;100.00;97603.19;5085385;28;20040;-63
2023/12/30 05:41:40;;;;;;;1.27;0.70;;;;;;;2.56;100.00;97608.50;5084638;28;20036;-64
2023/12/30 05:44:06;;;;;;;1.80;1.05;;;;;;;2.61;100.00;97614.31;5083315;28;20058;-62
2023/12/30 05:46:32;;;;;;;1.15;0.70;;;;;;;2.63;100.00;97609.94;5087720;28;20047;-62
2023/12/30 05:48:58;;;;;;;1.08;0.80;;;;;;;2.72;100.00;97613.91;5086346;28;20043;-62
2023/12/30 05:51:24;;;;;;;1.85;1.00;;;;;;;2.65;100.00;97609.88;5086284;28;20048;-63
2023/12/30 05:53:50;;;;;;;1.27;0.70;;;;;;;2.47;100.00;97584.00;5085458;28;20040;-64
2023/12/30 05:56:23;;;;;;;1.30;0.88;;;;;;;2.65;100.00;97628.69;5085140;28;20036;-63
2023/12/30 05:58:50;;;;;;;1.90;1.17;;;;;;;2.73;100.00;97620.69;5084801;28;20096;-64
2023/12/30 06:01:16;;;;;;;1.25;0.85;;;;;;;2.81;100.00;97618.69;5081431;28;20074;-63
2023/12/30 06:03:42;;;;;;;2.03;1.40;;;;;;;2.78;100.00;97637.59;5084801;28;20071;-63
2023/12/30 06:06:07;;;;;;;1.63;0.98;;;;;;;2.79;100.00;97641.84;5084377;28;20043;-62
2023/12/30 06:08:33;;;;;;;0.85;0.68;;;;;;;2.76;100.00;97653.94;5085781;28;20047;-63
2023/12/30 06:10:59;;;;;;;2.00;1.10;;;;;;;2.63;100.00;97634.75;5086521;28;20036;-62
2023/12/30 06:13:25;;;;;;;1.92;1.10;;;;;;;2.62;100.00;97633.09;5081785;28;20511;-62
2023/12/30 06:15:51;;;;;;;1.55;0.98;;;;;;;2.61;100.00;97637.38;5083847;28;20500;-62
2023/12/30 06:18:18;;;;;;;1.83;1.15;;;;;;;2.82;100.00;97669.13;5084158;28;20134;-63
2023/12/30 06:20:45;;;;;;;0.90;0.70;;;;;;;2.81;100.00;97678.56;5086335;28;20427;-65
2023/12/30 06:23:12;;;;;;;1.08;0.73;;;;;;;2.74;100.00;97678.81;5086540;28;20043;-63
2023/12/30 06:25:38;;;;;;;0.98;0.77;;;;;;;2.76;100.00;97682.16;5081206;28;20085;-62
2023/12/30 06:28:04;;;;;;;0.80;0.50;;;;;;;2.62;100.00;97662.13;5083971;28;20411;-62
2023/12/30 06:30:30;;;;;;;1.40;0.93;;;;;;;2.85;100.00;97695.50;5086299;28;20067;-64
2023/12/30 06:32:56;;;;;;;1.50;1.00;;;;;;;2.86;100.00;97696.34;5083505;28;20044;-63
2023/12/30 06:35:22;;;;;;;2.35;1.17;;;;;;;3.02;100.00;97701.78;5086684;28;20054;-64
2023/12/30 06:37:48;;;;;;;0.95;0.57;;;;;;;2.89;100.00;97673.13;5085408;28;20534;-63
2023/12/30 06:40:14;;;;;;;0.70;0.43;;;;;;;3.17;100.00;97707.19;5082920;28;20052;-62
2023/12/30 06:42:40;;;;;;;1.55;0.90;;;;;;;3.14;100.00;97712.41;5085169;28;20043;-62
2023/12/30 06:45:06;;;;;;;1.48;0.80;;;;;;;3.11;100.00;97729.66;5086543;28;20143;-62
2023/12/30 06:47:32;;;;;;;1.00;0.60;;;;;;;3.00;100.00;97691.56;5076731;28;20043;-63
2023/12/30 06:49:57;;;;;;;1.52;0.70;;;;;;;3.23;100.00;97727.50;5077720;28;20543;-64
2023/12/30 06:52:23;;;;;;;2.42;1.02;;;;;;;2.92;100.00;97684.16;5070548;28;20055;-62
2023/12/30 06:54:49;;;;;;;1.15;0.80;;;;;;;3.28;100.00;97725.59;5074178;28;20048;-62
2023/12/30 06:57:15;;;;;;;1.63;0.95;;;;;;;3.16;100.00;97725.22;5075607;28;20143;-63
2023/12/30 06:59:41;;;;;;;2.88;0.80;;;;;;;3.34;100.00;97737.38;5082624;28;20036;-63
2023/12/30 07:02:08;;;;;;;1.20;0.70;;;;;;;3.35;100.00;97744.19;5079777;28;20071;-62
2023/12/30 07:04:34;;;;;;;1.45;0.70;;;;;;;3.14;100.00;97725.25;5085105;28;20126;-63
2023/12/30 07:07:00;;;;;;;1.00;0.70;;;;;;;3.31;100.00;97755.47;5083233;28;20555;-61
2023/12/30 07:09:25;;;;;;;0.85;0.50;;;;;;;3.40;100.00;97763.66;5083396;28;20047;-63
2023/12/30 07:11:51;;;;;;;0.88;0.60;;;;;;;3.40;100.00;97770.56;5085747;28;20035;-62
2023/12/30 07:14:17;;;;;;;1.77;0.75;;;;;;;3.39;100.00;97769.72;5084436;28;20611;-63
2023/12/30 07:16:48;;;;;;;2.40;0.77;;;;;;;3.20;100.00;97758.41;5086245;28;20043;-64
2023/12/30 07:19:14;;;;;;;1.52;0.57;;;;;;;3.52;100.00;97792.38;5055065;28;20032;-62
2023/12/30 07:21:40;;;;;;;1.27;0.50;;;;;;;3.55;100.00;97800.81;5083812;28;20036;-61
2023/12/30 07:24:06;;;;;;;1.75;0.60;;;;;;;3.50;100.00;97797.59;5084860;28;20040;-62
2023/12/30 07:26:32;;;;;;;2.15;0.65;;;;;;;3.45;100.00;97803.78;5083446;28;20040;-61
2023/12/30 07:28:59;;;;;;;1.65;0.82;;;;;;;3.42;100.00;97810.69;5067096;28;20046;-61
2023/12/30 07:31:25;;;;;;;0.63;0.55;;;;;;;3.50;100.00;97818.13;5085442;28;20086;-61
2023/12/30 07:33:51;;;;;;;1.10;0.57;;;;;;;3.41;100.00;97823.56;5081901;28;20123;-62
2023/12/30 07:36:18;;;;;;;2.70;1.10;;;;;;;3.49;100.00;97836.16;5083366;28;20993;-61
2023/12/30 07:38:43;;;;;;;1.52;0.55;;;;;;;3.39;100.00;97815.94;5083841;28;20088;-60
2023/12/30 07:41:14;;;;;;;1.17;0.70;;;;;;;3.56;100.00;97841.00;5066350;28;20143;-62
2023/12/30 07:43:40;;;;;;;1.08;0.75;;;;;;;3.71;100.00;97839.63;5068408;28;20465;-63
2023/12/30 07:46:06;;;;;;;0.98;0.60;;;;;;;3.67;100.00;97840.63;5083483;28;20093;-63
2023/12/30 07:48:32;;;;;;;1.10;0.73;;;;;;;3.75;100.00;97849.75;5084202;28;20141;-63
2023/12/30 07:50:59;;;;;;;2.17;0.73;;;;;;;3.77;100.00;97852.22;5081837;28;20178;-63
2023/12/30 07:53:25;;;;;;;1.65;0.90;;;;;;;3.78;100.00;97859.91;5077830;28;20055;-64
2023/12/30 07:55:51;;;;;;;1.10;0.80;;;;;;;3.84;100.00;97869.13;5084071;28;20083;-62
2023/12/30 07:58:17;;;;;;;1.15;0.77;;;;;;;3.60;100.00;97834.88;5082914;28;20083;-63
2023/12/30 08:00:43;;;;;;;1.08;0.75;;;;;;;3.70;100.00;97864.50;5084502;28;20464;-64
2023/12/30 08:03:09;;;;;;;2.30;1.15;;;;;;;3.64;100.00;97877.56;5087745;28;20043;-62
2023/12/30 08:05:35;;;;;;;2.22;1.10;;;;;;;3.65;100.00;97879.22;5086921;28;20093;-62
2023/12/30 08:08:02;;;;;;;1.08;0.77;;;;;;;3.62;100.00;97874.19;5088396;28;20032;-62
2023/12/30 08:10:29;;;;;;;1.77;1.13;;;;;;;3.61;100.00;97887.13;5086512;28;20580;-63
2023/12/30 08:12:55;;;;;;;1.20;0.80;;;;;;;3.59;100.00;97886.31;5085502;28;20918;-64
2023/12/30 08:15:21;;;;;;;1.95;1.15;;;;;;;3.60;100.00;97899.13;5088758;28;20036;-63
2023/12/30 08:17:47;;;;;;;2.75;1.05;;;;;;;3.64;100.00;97900.69;5084260;28;20051;-65
2023/12/30 08:20:13;;;;;;;1.35;0.88;;;;;;;3.69;100.00;97906.50;5083434;28;20036;-63
2023/12/30 08:22:39;;;;;;;1.90;1.10;;;;;;;3.69;100.00;97915.94;5076443;28;20494;-63
2023/12/30 08:25:05;;;;;;;1.58;1.00;;;;;;;3.69;100.00;97923.63;5087197;28;20685;-62
2023/12/30 08:27:31;;;;;;;1.95;1.10;;;;;;;3.74;100.00;97922.59;5076417;28;20044;-60
2023/12/30 08:29:57;;;;;;;1.40;0.90;;;;;;;3.83;100.00;97911.97;5078675;28;20048;-64
2023/12/30 08:32:23;;;;;;;1.67;1.00;;;;;;;3.80;100.00;97913.81;5083775;28;20042;-64
2023/12/30 08:34:49;;;;;;;1.70;1.00;;;;;;;3.74;100.00;97896.88;5081194;28;20036;-63
2023/12/30 08:37:15;;;;;;;1.40;0.93;;;;;;;3.87;100.00;97905.00;5083048;28;20040;-64
2023/12/30 08:39:41;;;;;;;1.17;0.90;;;;;;;4.06;100.00;97943.72;5075829;28;20046;-58
2023/12/30 08:42:07;;;;;;;1.90;1.30;;;;;;;4.04;100.00;97945.50;5074556;28;20084;-56
2023/12/30 08:44:35;;;;;;;1.88;1.00;;;;;;;4.05;100.00;97949.75;5074926;28;20036;-59
2023/12/30 08:47:01;;;;;;;1.00;0.70;;;;;;;4.04;100.00;97948.06;5057039;28;20040;-58
2023/12/30 08:49:27;;;;;;;1.42;0.93;;;;;;;3.98;100.00;97954.28;5075882;28;20127;-64
2023/12/30 08:51:53;;;;;;;2.90;1.40;;;;;;;4.05;100.00;97957.47;5075451;28;20048;-64
2023/12/30 08:54:19;;;;;;;2.13;1.20;;;;;;;4.11;100.00;97972.69;5075042;28;20040;-63
2023/12/30 08:56:45;;;;;;;1.80;1.02;;;;;;;4.20;100.00;97969.78;5075517;28;20047;-63
2023/12/30 08:59:11;;;;;;;3.92;1.33;;;;;;;4.29;100.00;97976.34;5084235;28;20144;-63
2023/12/30 09:01:37;;;;;;;2.35;1.30;;;;;;;4.36;100.00;97972.63;5086983;28;20047;-62
2023/12/30 09:04:03;;;;;;;1.00;0.60;;;;;;;4.36;100.00;97977.78;5092349;28;20044;-61
2023/12/30 09:06:29;;;;;;;1.67;1.17;;;;;;;4.14;100.00;97965.69;5079500;28;20024;-63
2023/12/30 09:08:56;;;;;;;1.23;0.88;;;;;;;4.34;100.00;97989.88;5074151;28;20119;-63
2023/12/30 09:11:22;;;;;;;1.88;1.42;;;;;;;4.20;100.00;97993.75;5077437;28;20038;-60
2023/12/30 09:13:49;;;;;;;1.20;0.95;;;;;;;4.15;100.00;97982.81;5074633;28;20464;-60
2023/12/30 09:16:15;;;;;;;1.10;1.00;;;;;;;3.92;100.00;97980.22;5075545;28;20035;-61
2023/12/30 09:18:42;;;;;;;1.50;0.90;;;;;;;3.69;100.00;97968.16;5074555;28;20049;-63
2023/12/30 09:21:08;;;;;;;2.85;1.20;;;;;;;3.84;100.00;98006.19;5061160;28;20489;-62
2023/12/30 09:23:34;;;;;;;2.33;1.30;;;;;;;3.75;100.00;97980.81;5085869;28;20043;-63
2023/12/30 09:26:00;;;;;;;2.05;0.98;;;;;;;3.99;100.00;98021.97;5073670;28;20656;-62
2023/12/30 09:28:26;;;;;;;1.80;1.17;;;;;;;4.04;100.00;98025.22;5074814;28;20097;-62
2023/12/30 09:30:52;;;;;;;2.03;1.10;;;;;;;4.06;100.00;98021.72;5080892;28;20070;-63
2023/12/30 09:33:18;;;;;;;2.65;1.15;;;;;;;4.08;100.00;98024.25;5075996;28;20071;-62
2023/12/30 09:35:44;;;;;;;1.40;0.90;;;;;;;3.96;100.00;98015.22;5074202;28;20046;-62
2023/12/30 09:38:10;;;;;;;2.38;1.20;;;;;;;3.98;100.00;98035.72;5073655;28;20434;-62
2023/12/30 09:40:36;;;;;;;2.05;0.95;;;;;;;4.03;100.00;98028.69;5074339;28;20037;-63
2023/12/30 09:43:05;;;;;;;1.42;1.10;;;;;;;3.94;100.00;98019.56;5075309;28;20143;-62
2023/12/30 09:45:34;;;;;;;2.85;1.02;;;;;;;4.08;100.00;98032.75;5075017;28;20115;-62
2023/12/30 09:48:02;;;;;;;3.17;1.20;;;;;;;4.09;100.00;98037.00;5073070;28;20048;-62
2023/12/30 09:50:29;;;;;;;1.90;1.10;;;;;;;4.11;100.00;98030.09;5072133;28;20048;-63
2023/12/30 09:52:55;;;;;;;1.15;0.95;;;;;;;4.17;100.00;98036.75;5073121;28;20126;-61
2023/12/30 09:55:20;;;;;;;2.30;1.10;;;;;;;4.30;100.00;98037.16;5090527;28;20139;-61
2023/12/30 09:57:46;;;;;;;3.85;1.35;;;;;;;4.38;100.00;98032.59;5076199;28;20045;-62
2023/12/30 10:00:15;;;;;;;2.17;1.40;;;;;;;4.38;100.00;98041.16;5074314;28;20047;-64
2023/12/30 10:02:42;;;;;;;1.73;1.08;;;;;;;4.40;100.00;98034.19;5077829;28;20085;-61
2023/12/30 10:05:08;;;;;;;2.03;1.02;;;;;;;4.16;100.00;98012.78;5063419;28;20044;-62
2023/12/30 10:07:35;;;;;;;4.85;1.25;;;;;;;4.39;100.00;98037.69;5077116;28;20070;-62
2023/12/30 10:10:01;;;;;;;2.10;1.52;;;;;;;4.35;100.00;97994.94;5072824;28;20045;-61
2023/12/30 10:12:30;;;;;;;1.63;1.10;;;;;;;4.69;100.00;98028.00;5060498;28;20040;-62
2023/12/30 10:14:55;;;;;;;1.98;1.23;;;;;;;4.66;100.00;98046.13;5079340;28;20062;-62
2023/12/30 10:17:21;;;;;;;2.17;1.30;;;;;;;4.59;100.00;98035.22;5081660;28;20053;-62
2023/12/30 10:19:47;;;;;;;2.00;1.45;;;;;;;4.43;100.00;97995.50;5073504;28;20432;-64
2023/12/30 10:22:13;;;;;;;1.48;1.00;;;;;;;4.74;100.00;98038.13;5074152;28;20032;-62
2023/12/30 10:24:39;;;;;;;2.83;1.50;;;;;;;4.63;100.00;98036.78;5077609;28;20089;-62
2023/12/30 10:27:05;;;;;;;1.60;1.20;;;;;;;4.70;100.00;98037.41;5075494;28;20078;-61
2023/12/30 10:29:31;;;;;;;2.45;1.42;;;;;;;4.78;100.00;98045.66;5077527;28;20134;-63
2023/12/30 10:32:01;;;;;;;3.33;1.48;;;;;;;4.78;100.00;98049.97;5080354;28;20047;-62
2023/12/30 10:34:29;;;;;;;1.63;1.27;;;;;;;4.50;100.00;98019.28;5076828;28;20036;-65
2023/12/30 10:36:55;;;;;;;2.15;1.00;;;;;;;4.74;100.00;98048.41;5082699;28;20130;-63
2023/12/30 10:39:22;;;;;;;2.63;1.40;;;;;;;4.71;100.00;98049.34;5071666;28;20511;-63
2023/12/30 10:41:48;;;;;;;1.83;1.10;;;;;;;4.68;100.00;98052.06;5066061;28;20141;-61
2023/12/30 10:44:14;;;;;;;2.55;1.40;;;;;;;4.63;100.00;98047.09;5080719;28;20044;-62
2023/12/30 10:46:40;;;;;;;2.63;1.42;;;;;;;4.71;100.00;98043.41;5072835;28;20503;-61
2023/12/30 10:49:10;;;;;;;1.98;1.20;;;;;;;4.66;100.00;98051.25;5081703;28;20047;-61
2023/12/30 10:51:38;;;;;;;1.58;1.00;;;;;;;4.58;100.00;98050.72;5084842;28;20507;-63
2023/12/30 10:54:06;;;;;;;1.70;0.85;;;;;;;4.52;100.00;98056.06;5077826;28;20090;-61
2023/12/30 10:56:39;;;;;;;3.22;1.30;;;;;;;4.51;100.00;98047.50;5056892;28;20460;-63
2023/12/30 10:59:07;;;;;;;3.50;1.30;;;;;;;4.63;100.00;98053.97;5081905;28;20032;-62
2023/12/30 11:01:35;;;;;;;2.28;0.93;;;;;;;4.65;100.00;98053.03;5075762;28;20419;-62
2023/12/30 11:04:03;;;;;;;1.95;1.50;;;;;;;4.63;100.00;98047.09;5081015;28;20075;-64
2023/12/30 11:06:35;;;;;;;2.40;1.10;;;;;;;4.78;100.00;98039.69;5078787;28;20035;-62
2023/12/30 11:09:07;;;;;;;2.10;1.27;;;;;;;4.84;100.00;98039.44;5071082;28;20127;-62
2023/12/30 11:11:33;;;;;;;3.60;1.45;;;;;;;4.76;100.00;98041.50;5078193;28;20040;-62
2023/12/30 11:13:59;;;;;;;3.13;1.13;;;;;;;4.72;100.00;98045.03;5079025;28;20519;-61
2023/12/30 11:16:25;;;;;;;2.15;1.05;;;;;;;4.80;100.00;98037.91;5062043;28;20036;-63
2023/12/30 11:18:57;;;;;;;1.75;1.25;;;;;;;4.85;100.00;98039.41;5078710;28;20044;-62
2023/12/30 11:21:35;;;;;;;2.28;1.27;;;;;;;4.99;100.00;98036.28;5070379;28;20131;-62
2023/12/30 11:24:03;;;;;;;1.73;1.25;;;;;;;4.90;100.00;98032.34;5077171;28;20162;-64
2023/12/30 11:26:30;;;;;;;1.83;1.35;;;;;;;4.59;100.00;97982.91;5064969;28;20028;-63
2023/12/30 11:29:00;;;;;;;1.98;1.33;;;;;;;4.89;100.00;98040.13;5072328;28;20121;-66
2023/12/30 11:31:37;;;;;;;1.55;1.02;;;;;;;4.83;100.00;98048.91;5071060;28;20040;-62